Pagrindinis puslapis
METAR-TAF:

METAR-TAF

Oro uostai :

Kirkenesas, Norvegija

platuma: 69-44N, ilguma: 029-54E, Aukštis: 9 m

Dabartinis oras

Ataskaita buvo paskelbta 44 minutes, ne 20:50 UTC
Vėjas 14 kt iš Rytų/Pietryčių
Temperatūra -1°C
Drėgmė 86%
Slėgis 1001 hPa
Matomumas 10 km arba daugiau
sniegas

METAR: ENKR 222050Z 12014KT 9999 -SN VV019 M01/M03 Q1001 RMK WIND 731FT 10022KT

Laikas: 23:34 (21:34 UTC)

Prognozė

Ataskaita buvo paskelbta 1 valandą ir 34 minutes, ne 20:00 UTC
Prognozė galioja nuo 22 metu 21 UTC su 23 metu 06 UTC
Vėjas 8 kt iš Pietryčių
Matomumas 10 km arba daugiau
Mažai debesys ne aukštis 1000 ft
Su prošvaistėmis ne aukštis 4000 ft
Laikinai
nuo 22 metu 21 UTC su 23 metu 06 UTC
Matomumas: 4000 m
ne aukštis 1200 ft
sniegas

TAF: ENKR 222000Z 2221/2306 13008KT 9999 FEW010 BKN040 TEMPO 2221/2306 4000 -SN VV012

Orai ataskaitas ir orų prognozės (METAR, TAF).

turimą stotys yra geltonos ir raudonos taškus žemėlapyje.

Perkelti pele per norėdami pamatyti stoties vardą.

Tada spustelėkite, norėdami matyti oro stebėjimo ir prognozės.

Norėdami pakeisti žemėlapį: spustelėkite ant žalios mygtukų su juodo kryžiaus žemyn,; žalią mygtuką su brūkšneliu, jei norite nutolinti; arba žalių rodyklių gretimoms žemėlapius.


METAR-TAF: